Terminal Aerodrome Forecast
Issued by NWS Pittsburgh, PA

Current Version | Previous Version | Text Only | Print | Product List | Glossary Off
Versions: 1 2 3 4 5 6 7 8 9 10 11 12 13 14 15 16 17 18 19 20 21 22 23 24 25 26 27 28 29 30

018
FTUS41 KPBZ 202326
TAFPIT
TAF
KPIT 202326Z 2100/2206 00000KT P6SM SCT100
     FM210800 00000KT 2SM BR SCT003
      TEMPO 2109/2112 3/4SM BR
     FM211300 00000KT P6SM SCT040=

USA.gov is the U.S. government's official web portal to all federal, state and local government web resources and services.